Time;durP1;ratioP1;P1;durP2;ratioP2;P2;SDS_P1;SDS_P2;PMS_P1;PMS_P2;Temp;Humidity;BMP_temperature;BMP_pressure;BME280_temperature;BME280_humidity;BME280_pressure;Samples;Min_cycle;Max_cycle;Signal;HPM_P1;HPM_P2
2022/12/28 10:14:40;;;;;;;8.98;4.85;;;;;;;4.58;89.43;100808.24;1787735;78;22314;-46
2022/12/28 10:17:10;;;;;;;8.38;3.83;;;;;;;4.57;89.14;100810.37;1728372;81;21064;-48
2022/12/28 10:19:47;;;;;;;8.75;4.37;;;;;;;4.76;87.69;100810.16;1727588;81;21602;-48
2022/12/28 10:22:17;;;;;;;6.12;3.70;;;;;;;4.99;85.70;100820.83;1725453;81;21052;-48
2022/12/28 10:24:46;;;;;;;12.55;3.98;;;;;;;5.25;84.55;100812.52;1731237;81;21000;-48
2022/12/28 10:27:30;;;;;;;7.12;3.47;;;;;;;5.61;82.44;100811.81;1719438;82;21057;-49
2022/12/28 10:29:59;;;;;;;6.40;3.35;;;;;;;5.79;79.26;100827.02;1727384;81;21040;-48
2022/12/28 10:32:25;;;;;;;15.70;3.55;;;;;;;5.71;78.21;100816.86;1718740;82;21128;-48
2022/12/28 10:35:00;;;;;;;8.55;3.58;;;;;;;5.48;76.70;100827.46;1715232;82;21076;-48
2022/12/28 10:37:31;;;;;;;12.37;3.85;;;;;;;5.33;77.27;100833.10;1729296;81;21168;-48
2022/12/28 10:40:01;;;;;;;4.80;2.90;;;;;;;5.14;77.36;100833.36;1717800;81;21056;-48
2022/12/28 10:42:42;;;;;;;9.13;4.15;;;;;;;4.98;78.81;100829.83;1719224;82;21029;-49
2022/12/28 10:45:19;;;;;;;7.30;2.77;;;;;;;5.02;79.28;100832.98;1725797;82;21065;-48
2022/12/28 10:47:47;;;;;;;5.60;3.00;;;;;;;4.95;78.35;100838.83;1726292;81;21026;-49
2022/12/28 10:50:42;;;;;;;8.63;3.52;;;;;;;4.97;79.19;100834.14;1729387;81;21714;-49
2022/12/28 10:53:25;;;;;;;5.47;3.05;;;;;;;5.23;79.52;100835.38;1708938;83;21178;-40
2022/12/28 10:56:14;;;;;;;5.95;3.15;;;;;;;5.45;78.96;100840.75;1711238;82;21028;-39
2022/12/28 10:58:46;;;;;;;6.47;3.05;;;;;;;5.55;78.53;100852.75;1671458;84;21088;-48
2022/12/28 11:01:18;;;;;;;8.35;3.08;;;;;;;5.58;77.50;100851.98;1654985;86;21025;-48
2022/12/28 11:04:19;;;;;;;7.70;3.92;;;;;;;5.70;76.55;100844.95;1689994;84;21096;-49
2022/12/28 11:06:59;;;;;;;6.22;2.90;;;;;;;6.01;77.83;100859.28;1661018;84;21152;-49
2022/12/28 11:09:30;;;;;;;10.88;3.45;;;;;;;6.18;74.44;100856.26;1686396;84;21123;-48
2022/12/28 11:12:23;;;;;;;4.87;2.67;;;;;;;6.00;74.53;100864.44;1668022;84;21040;-48
2022/12/28 11:14:51;;;;;;;10.30;3.37;;;;;;;5.76;73.72;100859.41;1683975;84;21022;-49
2022/12/28 11:17:25;;;;;;;9.43;3.47;;;;;;;5.77;74.65;100864.64;1680087;84;21054;-48
2022/12/28 11:19:58;;;;;;;8.23;3.22;;;;;;;6.03;74.46;100869.70;1651383;86;21347;-49
2022/12/28 11:22:27;;;;;;;7.53;3.15;;;;;;;6.34;74.29;100864.92;1650842;86;21081;-49
2022/12/28 11:24:56;;;;;;;4.03;2.50;;;;;;;6.45;72.66;100866.51;1658013;86;21131;-48
2022/12/28 11:27:23;;;;;;;6.85;2.67;;;;;;;6.24;70.79;100896.27;1654888;85;21171;-48
2022/12/28 11:29:52;;;;;;;5.45;2.67;;;;;;;5.88;69.66;100878.80;1653711;84;21078;-48
2022/12/28 11:32:49;;;;;;;4.72;2.65;;;;;;;5.64;71.75;100885.02;1663858;84;21156;-49
2022/12/28 11:35:25;;;;;;;11.48;3.55;;;;;;;5.55;72.96;100890.39;1674422;84;21577;-50
2022/12/28 11:37:58;;;;;;;10.30;4.10;;;;;;;5.34;73.38;100894.95;1685237;83;21037;-49
2022/12/28 11:40:47;;;;;;;3.87;2.90;;;;;;;5.20;74.71;100891.92;1675432;84;21024;-49
2022/12/28 11:43:38;;;;;;;5.83;3.75;;;;;;;5.06;75.96;100887.61;1674093;84;21026;-49
2022/12/28 11:46:08;;;;;;;6.22;3.20;;;;;;;4.80;76.56;100896.25;1677036;84;21568;-49
2022/12/28 11:48:44;;;;;;;8.38;3.95;;;;;;;4.49;77.82;100883.99;1647418;84;21630;-48
2022/12/28 11:51:21;;;;;;;9.80;3.62;;;;;;;4.28;79.66;100887.59;1629595;86;21070;-49
2022/12/28 11:53:59;;;;;;;8.65;3.98;;;;;;;4.16;80.38;100889.76;1638592;85;21643;-49
2022/12/28 11:56:44;;;;;;;7.35;2.85;;;;;;;4.09;80.34;100893.38;1647132;86;21054;-50
2022/12/28 11:59:34;;;;;;;8.48;3.90;;;;;;;4.02;81.13;100896.59;1620674;87;21070;-49
2022/12/28 12:02:07;;;;;;;9.80;3.35;;;;;;;3.93;81.79;100898.00;1653325;84;21399;-49
2022/12/28 12:04:38;;;;;;;;;;;;;;;3.83;82.01;100904.11;1554937;91;21701;-50
2022/12/28 12:07:19;;;;;;;8.70;3.50;;;;;;;3.83;82.57;100911.45;1556487;91;20127;-48
2022/12/28 12:09:47;;;;;;;6.30;3.65;;;;;;;3.86;82.80;100908.09;1548776;91;21106;-50
2022/12/28 12:12:19;;;;;;;7.83;3.10;;;;;;;3.87;83.65;100910.72;1558802;91;21692;-50
2022/12/28 12:15:01;;;;;;;6.80;2.83;;;;;;;3.90;83.79;100913.86;1534662;91;21152;-48
2022/12/28 12:18:00;;;;;;;7.00;4.47;;;;;;;4.17;83.55;100907.05;1547959;91;21163;-48
2022/12/28 12:20:54;;;;;;;10.80;2.98;;;;;;;4.67;82.22;100909.64;1544887;91;21068;-50
2022/12/28 12:23:35;;;;;;;7.65;3.00;;;;;;;5.12;75.84;100912.86;1547950;91;21658;-50
2022/12/28 12:26:19;;;;;;;6.83;2.75;;;;;;;5.18;73.47;100914.77;1568017;90;21698;-49
2022/12/28 12:28:55;;;;;;;7.55;3.27;;;;;;;5.18;76.12;100913.47;1568110;88;21692;-49
2022/12/28 12:31:38;;;;;;;11.03;3.05;;;;;;;5.08;75.99;100913.16;1594468;88;21651;-50
2022/12/28 12:34:16;;;;;;;9.03;2.75;;;;;;;4.95;76.13;100912.73;1604668;87;21077;-48
2022/12/28 12:37:20;;;;;;;6.55;3.08;;;;;;;5.12;76.09;100911.98;1625249;86;21035;-48
2022/12/28 12:40:10;;;;;;;22.27;9.50;;;;;;;5.55;75.12;100927.15;1623375;86;22257;-51
2022/12/28 12:43:02;;;;;;;11.55;4.65;;;;;;;5.97;72.06;100921.09;1698168;81;21718;-49
2022/12/28 12:45:43;;;;;;;6.85;3.58;;;;;;;6.29;69.83;100935.39;1725810;82;21957;-49
2022/12/28 12:48:45;;;;;;;9.73;4.78;;;;;;;6.49;67.98;100930.71;1718165;81;21108;-50
2022/12/28 12:51:39;;;;;;;7.67;3.87;;;;;;;6.69;67.61;100934.73;1723839;81;21391;-49
2022/12/28 12:54:36;;;;;;;5.58;2.25;;;;;;;6.51;66.79;100936.43;1689998;83;21046;-48
2022/12/28 12:57:20;;;;;;;7.72;2.20;;;;;;;5.90;66.64;100946.37;1658316;84;21035;-48
2022/12/28 13:00:18;;;;;;;4.33;2.02;;;;;;;5.52;67.86;100946.13;1652000;85;21082;-49
2022/12/28 13:03:16;;;;;;;8.13;2.33;;;;;;;5.65;68.07;100949.09;1658190;85;21670;-40
2022/12/28 13:05:53;;;;;;;8.53;2.25;;;;;;;5.58;67.33;100948.91;1656505;85;21009;-39
2022/12/28 13:08:35;;;;;;;8.20;2.85;;;;;;;5.25;68.22;100953.03;1658993;86;21126;-41
2022/12/28 13:11:03;;;;;;;11.80;3.60;;;;;;;5.28;68.46;100965.70;1654527;85;21160;-41
2022/12/28 13:13:33;;;;;;;12.73;5.60;;;;;;;5.22;68.78;100964.62;1663208;85;21683;-40
2022/12/28 13:16:06;;;;;;;23.27;11.53;;;;;;;5.03;69.32;100977.39;1655013;84;21120;-41
2022/12/28 13:18:33;;;;;;;16.45;9.43;;;;;;;4.85;70.21;100974.19;1650381;85;21608;-39
2022/12/28 13:21:03;;;;;;;12.53;7.22;;;;;;;4.78;70.91;100983.06;1664158;84;21543;-40
2022/12/28 13:23:31;;;;;;;7.55;3.90;;;;;;;4.75;71.43;100982.06;1656721;85;21244;-40
2022/12/28 13:25:59;;;;;;;9.15;3.00;;;;;;;4.72;71.95;100980.25;1659505;85;21051;-40
2022/12/28 13:28:30;;;;;;;5.08;2.45;;;;;;;4.65;72.35;100980.88;1654386;85;21218;-40
2022/12/28 13:31:24;;;;;;;7.90;2.95;;;;;;;4.57;73.01;100989.20;1659381;84;21046;-41
2022/12/28 13:34:04;;;;;;;;;;;;;;;4.54;73.56;100983.09;1673784;84;21119;-40
2022/12/28 13:36:30;;;;;;;5.30;2.60;;;;;;;4.48;73.82;100990.66;1674938;84;20149;-42
2022/12/28 13:39:13;;;;;;;7.40;3.05;;;;;;;4.22;74.70;100989.70;1659122;85;21102;-48
